Terminal Aerodrome Forecast
Issued by NWS St Louis, MO

Home | Current Version | Previous Version | Text Only | Print | Product List | Glossary On
Versions: 1 2 3 4 5 6 7 8 9 10 11 12 13 14 15 16 17 18 19 20 21 22 23 24
000
FTUS43 KLSX 140532
TAFSTL
TAF
KSTL 140532Z 1406/1512 32014G22KT P6SM OVC035
     FM140900 32014KT P6SM OVC030
     FM141200 34008KT P6SM SCT030
     FM141600 32006KT P6SM BKN070
     FM150100 VRB03KT P6SM SCT140=

USA.gov is the U.S. government's official web portal to all federal, state and local government web resources and services.